Fountain Springs, Pennsylvania
Current Conditions -  °F | °C
As of 5:15 AM on Thursday 27 Nov 2014 (Local Time) from KHZL Reporting Station
Light Snow Light Snow  
Wind Chill: 23°   Ceiling: 300
Heat Index: 30°   Visibility: 3mi
Dew Point: 28°   Wind: 7mph
Humidity: 93%   Direction: 290°WNW
Pressure: 29.94"   Gusts: NA
Location:  40.7564°N, 76.3531°W
Report Text: KHZL 271015Z AUTO 29006KT 3SM -SN OVC003 M01/M02 A2994 RMK AO2
Loading
Personal Weather Stations






























Interactive Weather Map New forecast layout! Learn more

10-Day Weather Forecast

Advertisements
Track Severe Weather on mobile